Time;durP1;ratioP1;P1;durP2;ratioP2;P2;SDS_P1;SDS_P2;PMS_P1;PMS_P2;Temp;Humidity;BMP_temperature;BMP_pressure;BME280_temperature;BME280_humidity;BME280_pressure;Samples;Min_cycle;Max_cycle;Signal;HPM_P1;HPM_P2
2022/08/08 00:01:56;;;;;;;13.80;7.93;;;29.90;49.70;;;;;;5093954;28;20031;-76
2022/08/08 00:04:54;;;;;;;13.35;6.43;;;29.60;49.80;;;;;;5103614;28;20027;-76
2022/08/08 00:07:36;;;;;;;10.20;5.18;;;29.30;50.20;;;;;;5097112;28;20034;-76
2022/08/08 00:10:14;;;;;;;6.22;4.43;;;29.10;50.30;;;;;;5100370;28;20020;-76
2022/08/08 00:12:50;;;;;;;6.65;3.95;;;29.10;50.70;;;;;;5105287;28;20089;-74
2022/08/08 00:15:20;;;;;;;7.72;4.28;;;29.10;50.50;;;;;;5107528;28;20039;-76
2022/08/08 00:17:58;;;;;;;7.80;4.10;;;28.90;51.10;;;;;;5094919;28;20070;-77
2022/08/08 00:20:45;;;;;;;7.75;3.90;;;29.00;51.20;;;;;;5113990;28;20016;-76
2022/08/08 00:23:19;;;;;;;5.88;2.80;;;29.00;50.70;;;;;;5113741;28;20020;-75
2022/08/08 00:25:52;;;;;;;5.80;2.63;;;28.50;50.10;;;;;;5113837;28;20028;-76
2022/08/08 00:28:36;;;;;;;4.60;2.63;;;28.60;50.10;;;;;;5113738;28;20402;-77
2022/08/08 00:31:24;;;;;;;4.25;2.83;;;28.70;50.60;;;;;;5111138;28;20363;-77
2022/08/08 00:37:24;;;;;;;5.35;2.47;;;29.20;47.90;;;;;;5011124;28;20037;-78
2022/08/08 00:40:06;;;;;;;4.70;2.40;;;29.40;48.40;;;;;;5019786;28;20137;-76
2022/08/08 00:42:48;;;;;;;3.72;2.10;;;29.60;49.00;;;;;;5027802;28;20079;-74
2022/08/08 00:45:49;;;;;;;6.15;2.35;;;29.90;48.70;;;;;;5016803;28;20049;-77
2022/08/08 00:48:41;;;;;;;7.00;2.22;;;30.00;48.80;;;;;;4978240;28;20042;-76
2022/08/08 00:51:28;;;;;;;5.63;2.30;;;30.10;48.80;;;;;;4987116;28;20133;-76
2022/08/08 00:54:18;;;;;;;5.25;2.30;;;30.00;49.20;;;;;;4989216;28;20382;-76
2022/08/08 00:57:02;;;;;;;7.47;2.55;;;30.00;49.20;;;;;;4972403;28;20030;-75
2022/08/08 00:59:43;;;;;;;3.38;2.00;;;29.80;49.20;;;;;;4987270;28;20070;-76
2022/08/08 01:02:30;;;;;;;5.68;2.22;;;29.50;49.70;;;;;;4980879;28;20441;-76
2022/08/08 01:05:15;;;;;;;4.15;2.17;;;29.40;50.00;;;;;;4987994;28;20039;-77
2022/08/08 01:08:07;;;;;;;3.60;2.15;;;29.20;50.40;;;;;;4976413;28;20125;-76
2022/08/08 01:11:10;;;;;;;3.97;2.25;;;29.00;50.10;;;;;;4986831;28;20050;-75
2022/08/08 01:14:09;;;;;;;3.40;2.10;;;29.20;50.50;;;;;;5019572;28;20036;-76
2022/08/08 01:17:03;;;;;;;4.63;2.05;;;29.30;49.60;;;;;;5068978;28;20060;-75
2022/08/08 01:19:38;;;;;;;3.20;2.03;;;29.40;50.20;;;;;;5065828;28;20056;-76
2022/08/08 01:22:37;;;;;;;4.13;2.20;;;29.60;50.60;;;;;;5063854;28;20376;-77
2022/08/08 01:25:31;;;;;;;3.78;2.20;;;29.50;50.50;;;;;;5104863;28;20484;-75
2022/08/08 01:28:33;;;;;;;3.85;2.10;;;29.40;50.40;;;;;;5111986;28;20027;-76
2022/08/08 01:31:28;;;;;;;3.38;2.22;;;29.20;50.40;;;;;;5108371;28;20032;-76
2022/08/08 01:34:17;;;;;;;4.20;2.25;;;28.80;50.90;;;;;;5092933;28;20039;-76
2022/08/08 01:37:11;;;;;;;3.20;2.13;;;28.80;51.20;;;;;;5072190;28;20036;-77
2022/08/08 01:39:56;;;;;;;4.53;2.33;;;28.60;51.10;;;;;;5077097;28;20486;-75
2022/08/08 01:42:33;;;;;;;4.47;2.30;;;28.50;51.00;;;;;;5112534;28;20361;-76
2022/08/08 01:45:20;;;;;;;3.45;2.00;;;28.40;50.50;;;;;;5109207;28;20058;-75
2022/08/08 01:47:48;;;;;;;3.10;2.00;;;28.10;49.70;;;;;;5106417;28;20039;-76
2022/08/08 01:50:58;;;;;;;4.10;2.58;;;28.00;51.40;;;;;;5104342;28;20040;-77
2022/08/08 01:53:50;;;;;;;6.07;2.20;;;28.30;51.00;;;;;;5033806;28;20049;-75
2022/08/08 01:56:43;;;;;;;4.68;2.00;;;28.60;50.00;;;;;;5034347;28;20409;-76
2022/08/08 01:59:30;;;;;;;3.95;2.40;;;28.60;49.30;;;;;;5033827;28;20471;-75
2022/08/08 02:02:05;;;;;;;4.07;2.22;;;28.40;50.10;;;;;;5047423;28;20040;-77
2022/08/08 02:04:43;;;;;;;3.65;2.03;;;28.70;50.40;;;;;;5051827;28;20037;-75
2022/08/08 02:07:18;;;;;;;4.78;2.30;;;28.60;49.60;;;;;;5033763;28;20022;-75
2022/08/08 02:10:28;;;;;;;3.40;1.92;;;28.50;50.60;;;;;;5050012;28;20041;-76
2022/08/08 02:13:09;;;;;;;4.35;2.00;;;28.50;50.10;;;;;;4996792;28;20218;-76
2022/08/08 02:15:57;;;;;;;5.07;2.25;;;28.10;51.30;;;;;;4996090;28;20034;-75
2022/08/08 02:18:26;;;;;;;3.78;2.30;;;28.10;51.60;;;;;;5005095;28;20030;-77
2022/08/08 02:24:02;;;;;;;4.15;2.53;;;28.30;51.50;;;;;;5002719;28;20557;-76
2022/08/08 02:26:43;;;;;;;4.85;2.45;;;28.30;51.10;;;;;;4997573;28;20029;-78
2022/08/08 02:29:32;;;;;;;5.05;2.30;;;28.40;51.10;;;;;;5015195;28;20053;-77
2022/08/08 02:32:13;;;;;;;4.27;2.17;;;28.40;51.10;;;;;;5049554;28;20116;-78
2022/08/08 02:34:50;;;;;;;3.58;2.25;;;28.40;50.90;;;;;;5052315;28;20037;-77
2022/08/08 02:37:43;;;;;;;3.92;2.22;;;28.00;51.40;;;;;;5052356;28;20057;-78
2022/08/08 02:40:23;;;;;;;5.05;2.30;;;28.00;51.80;;;;;;4993481;28;20049;-77
2022/08/08 02:43:25;;;;;;;3.30;2.25;;;28.20;51.50;;;;;;5002410;28;20073;-78
2022/08/08 02:46:09;;;;;;;3.47;2.10;;;28.50;50.90;;;;;;5003696;28;20048;-77
2022/08/08 02:49:10;;;;;;;4.78;2.10;;;28.10;50.60;;;;;;5007929;28;20037;-77
2022/08/08 02:51:52;;;;;;;3.78;2.20;;;27.10;51.70;;;;;;5012413;28;20058;-76
2022/08/08 02:54:29;;;;;;;3.53;2.20;;;27.00;53.00;;;;;;5008878;28;20361;-77
2022/08/08 02:57:01;;;;;;;4.78;2.38;;;27.30;52.80;;;;;;5026368;28;20116;-76
2022/08/08 02:59:59;;;;;;;3.65;2.08;;;27.70;52.50;;;;;;5032852;28;20029;-77
2022/08/08 03:03:10;;;;;;;3.65;2.30;;;27.90;52.20;;;;;;4991870;28;20050;-75
2022/08/08 03:05:56;;;;;;;3.63;2.00;;;27.90;52.00;;;;;;4980306;28;20031;-77
2022/08/08 03:08:40;;;;;;;6.65;2.60;;;27.90;52.40;;;;;;4990326;28;20030;-77
2022/08/08 03:11:09;;;;;;;4.30;2.30;;;27.90;52.20;;;;;;4991688;28;20142;-78
2022/08/08 03:13:49;;;;;;;4.35;2.38;;;27.90;52.10;;;;;;4986943;28;20043;-78
2022/08/08 03:16:38;;;;;;;4.65;2.47;;;28.00;51.90;;;;;;4978521;28;20026;-78
2022/08/08 03:19:41;;;;;;;4.57;2.50;;;28.00;51.50;;;;;;4996486;28;20598;-78
2022/08/08 03:22:06;;;;;;;6.55;2.75;;;27.90;51.80;;;;;;5017791;28;20034;-76
2022/08/08 03:24:32;;;;;;;4.55;2.55;;;27.90;51.60;;;;;;5031649;28;20030;-78
2022/08/08 03:27:14;;;;;;;3.90;2.40;;;27.90;51.40;;;;;;5031789;28;20049;-78
2022/08/08 03:29:44;;;;;;;4.88;2.50;;;28.00;51.70;;;;;;5018404;28;20034;-75
2022/08/08 03:34:55;;;;;;;11.05;2.58;;;28.10;51.90;;;;;;5022720;28;20121;-78
2022/08/08 03:37:21;;;;;;;6.50;2.65;;;28.00;52.30;;;;;;5027701;28;20036;-78
2022/08/08 03:39:47;;;;;;;3.72;2.40;;;28.00;52.50;;;;;;5067542;28;20028;-76
2022/08/08 03:42:16;;;;;;;5.88;2.50;;;28.00;52.50;;;;;;5097566;28;20073;-78
2022/08/08 03:44:42;;;;;;;6.05;2.40;;;28.00;52.30;;;;;;5109202;28;20073;-78
2022/08/08 03:47:08;;;;;;;8.77;2.90;;;28.00;52.30;;;;;;5080092;28;20020;-76
2022/08/08 03:49:34;;;;;;;4.93;2.60;;;27.90;52.60;;;;;;5101450;28;20115;-77
2022/08/08 03:52:00;;;;;;;6.30;2.70;;;27.70;53.40;;;;;;5100828;28;20047;-77
2022/08/08 03:54:26;;;;;;;3.95;2.60;;;27.30;54.10;;;;;;5094264;28;20020;-78
2022/08/08 03:56:52;;;;;;;6.25;2.78;;;27.30;54.30;;;;;;5093610;28;20445;-78
2022/08/08 03:59:18;;;;;;;4.35;2.88;;;27.30;54.40;;;;;;5113224;28;20016;-79
2022/08/08 04:01:44;;;;;;;4.43;2.83;;;27.40;54.20;;;;;;5103829;28;20133;-77
2022/08/08 04:04:10;;;;;;;4.95;3.00;;;27.50;54.30;;;;;;5102299;28;20032;-77
2022/08/08 04:06:37;;;;;;;7.03;2.70;;;27.70;54.00;;;;;;5097188;28;20032;-79
2022/08/08 04:09:06;;;;;;;5.00;2.60;;;27.80;53.90;;;;;;5103297;28;20106;-78
2022/08/08 04:11:32;;;;;;;8.45;2.80;;;27.90;53.70;;;;;;5098663;28;20039;-77
2022/08/08 04:13:58;;;;;;;6.00;2.90;;;28.00;53.70;;;;;;5114363;28;20035;-78
2022/08/08 04:16:25;;;;;;;5.93;2.47;;;28.00;53.70;;;;;;5112908;28;20027;-77
2022/08/08 04:18:51;;;;;;;4.68;2.63;;;28.10;53.80;;;;;;5112401;28;20103;-78
2022/08/08 04:21:17;;;;;;;4.95;2.70;;;27.90;53.90;;;;;;5100950;28;20024;-78
2022/08/08 04:23:43;;;;;;;6.88;2.78;;;28.10;53.80;;;;;;5095958;28;20020;-77
2022/08/08 04:26:09;;;;;;;4.03;2.60;;;28.20;54.10;;;;;;5093545;28;20100;-78
2022/08/08 04:28:35;;;;;;;4.70;2.83;;;28.30;54.40;;;;;;5094094;28;20020;-78
2022/08/08 04:31:01;;;;;;;6.43;3.00;;;28.40;54.20;;;;;;5103166;28;20394;-78
2022/08/08 04:33:27;;;;;;;4.03;2.60;;;28.40;54.20;;;;;;5105916;28;20055;-78
2022/08/08 04:35:53;;;;;;;4.97;2.67;;;28.50;53.80;;;;;;5106622;28;20517;-78
2022/08/08 04:38:19;;;;;;;5.75;2.97;;;28.60;53.70;;;;;;5095148;28;20085;-75
2022/08/08 04:40:45;;;;;;;4.32;2.67;;;28.80;54.00;;;;;;5092250;28;20036;-75
2022/08/08 04:43:10;;;;;;;4.68;2.65;;;28.90;53.50;;;;;;5078920;28;20020;-75
2022/08/08 04:45:36;;;;;;;5.15;2.65;;;29.00;53.00;;;;;;5092653;28;20032;-72
2022/08/08 04:48:02;;;;;;;5.05;2.60;;;29.00;53.00;;;;;;5103554;28;20031;-73
2022/08/08 04:50:28;;;;;;;3.60;2.50;;;29.10;53.00;;;;;;5101849;28;20055;-75
2022/08/08 04:52:54;;;;;;;6.13;2.42;;;29.20;52.80;;;;;;5104381;28;20031;-75
2022/08/08 04:55:20;;;;;;;10.50;2.85;;;29.30;52.40;;;;;;5093926;28;20533;-74
2022/08/08 04:57:46;;;;;;;7.93;2.75;;;29.40;52.80;;;;;;5101992;28;20031;-74
2022/08/08 05:00:13;;;;;;;5.28;2.70;;;29.50;52.80;;;;;;5106717;28;20028;-74
2022/08/08 05:02:38;;;;;;;3.85;2.65;;;29.60;52.40;;;;;;5095181;28;20077;-74
2022/08/08 05:05:05;;;;;;;5.30;2.80;;;29.70;52.20;;;;;;5095137;28;20024;-74
2022/08/08 05:07:31;;;;;;;4.68;2.33;;;29.80;52.20;;;;;;5099175;28;20382;-74
2022/08/08 05:09:56;;;;;;;5.20;2.25;;;29.90;51.50;;;;;;5108261;28;20420;-74
2022/08/08 05:12:22;;;;;;;4.30;2.17;;;30.00;50.40;;;;;;5094181;28;20524;-73
2022/08/08 05:14:48;;;;;;;4.47;2.28;;;30.00;48.30;;;;;;5095123;28;20028;-75
2022/08/08 05:17:14;;;;;;;4.22;2.38;;;30.10;48.80;;;;;;5093775;28;20030;-74
2022/08/08 05:19:39;;;;;;;3.53;2.05;;;30.20;50.50;;;;;;5077404;28;20034;-74
2022/08/08 05:22:07;;;;;;;4.13;2.10;;;30.20;49.30;;;;;;5095905;28;20115;-74
2022/08/08 05:24:33;;;;;;;5.63;2.10;;;30.30;48.00;;;;;;5107758;28;20020;-74
2022/08/08 05:26:59;;;;;;;7.78;2.33;;;30.40;48.60;;;;;;5095353;28;20020;-73
2022/08/08 05:29:25;;;;;;;5.70;2.50;;;30.20;49.00;;;;;;5091978;28;20030;-75
2022/08/08 05:31:51;;;;;;;6.07;2.00;;;30.30;49.30;;;;;;5089478;28;20035;-74
2022/08/08 05:34:32;;;;;;;5.90;2.13;;;30.40;49.50;;;;;;5096883;28;20027;-74
2022/08/08 05:37:01;;;;;;;5.25;2.17;;;30.40;49.70;;;;;;5111312;28;20430;-74
2022/08/08 05:39:28;;;;;;;5.18;2.00;;;30.40;48.70;;;;;;5110433;28;20095;-75
2022/08/08 05:41:54;;;;;;;5.65;2.40;;;30.50;49.30;;;;;;5114433;28;20053;-74
2022/08/08 05:44:25;;;;;;;6.50;2.30;;;30.50;49.90;;;;;;5111392;28;20389;-75
2022/08/08 05:46:55;;;;;;;7.28;2.15;;;30.60;50.00;;;;;;5111472;28;20019;-74
2022/08/08 05:49:21;;;;;;;3.95;2.30;;;30.70;50.20;;;;;;5111122;28;20092;-75
2022/08/08 05:51:47;;;;;;;6.05;2.22;;;30.60;50.40;;;;;;5111488;28;20040;-75
2022/08/08 05:54:14;;;;;;;3.92;2.00;;;30.70;50.50;;;;;;5094336;28;20102;-74
2022/08/08 05:56:42;;;;;;;4.35;2.17;;;30.70;51.10;;;;;;5111626;28;20098;-75
2022/08/08 05:59:16;;;;;;;4.35;2.10;;;30.80;50.50;;;;;;5094562;28;20055;-75
2022/08/08 06:01:42;;;;;;;3.55;1.90;;;30.70;50.00;;;;;;5112572;28;20024;-76
2022/08/08 06:04:10;;;;;;;3.15;1.95;;;30.70;49.90;;;;;;5094055;28;20363;-74
2022/08/08 06:06:39;;;;;;;2.85;1.80;;;30.70;50.00;;;;;;5112729;28;20403;-74
2022/08/08 06:09:06;;;;;;;2.90;1.60;;;30.90;50.30;;;;;;5112713;28;20028;-76
2022/08/08 06:11:32;;;;;;;4.30;1.80;;;31.10;47.00;;;;;;5112717;28;20521;-76
2022/08/08 06:14:00;;;;;;;3.78;1.90;;;31.20;48.40;;;;;;5081573;28;20049;-74
2022/08/08 06:16:26;;;;;;;4.15;1.90;;;31.30;47.40;;;;;;5092251;28;20672;-75
2022/08/08 06:18:53;;;;;;;5.43;1.70;;;31.20;47.40;;;;;;5112348;28;20024;-75
2022/08/08 06:21:20;;;;;;;3.33;1.88;;;30.60;46.20;;;;;;5112772;28;20023;-75
2022/08/08 06:23:46;;;;;;;5.18;1.92;;;30.50;47.90;;;;;;5112657;28;20431;-74
2022/08/08 06:26:13;;;;;;;5.00;2.25;;;30.80;47.60;;;;;;5112317;28;20514;-74
2022/08/08 06:28:59;;;;;;;4.47;1.80;;;31.20;47.00;;;;;;5115920;28;20019;-76
2022/08/08 06:31:28;;;;;;;3.45;1.52;;;31.20;46.70;;;;;;5103504;28;20084;-75
2022/08/08 06:34:13;;;;;;;3.30;1.95;;;31.00;46.10;;;;;;5111842;27;20019;-75
2022/08/08 06:36:42;;;;;;;6.00;1.90;;;30.90;47.20;;;;;;5114423;27;20058;-75
2022/08/08 06:39:10;;;;;;;3.85;1.60;;;31.30;46.00;;;;;;5115773;27;20029;-75
2022/08/08 06:41:59;;;;;;;5.20;1.80;;;31.40;45.90;;;;;;5114390;28;20022;-76
2022/08/08 06:44:25;;;;;;;3.33;1.83;;;31.30;44.90;;;;;;5110928;27;20027;-75
2022/08/08 06:46:55;;;;;;;3.80;1.73;;;31.50;45.70;;;;;;5096260;28;20020;-75
2022/08/08 06:49:22;;;;;;;2.80;1.60;;;31.70;45.00;;;;;;5099181;28;20131;-76
2022/08/08 06:51:48;;;;;;;4.28;1.80;;;31.70;44.80;;;;;;5096090;28;20387;-75
2022/08/08 06:54:14;;;;;;;4.35;1.73;;;31.70;45.30;;;;;;5114880;28;20086;-74
2022/08/08 06:56:41;;;;;;;4.05;1.70;;;31.80;46.30;;;;;;5114228;28;20027;-76
2022/08/08 06:59:06;;;;;;;4.05;1.70;;;32.10;46.00;;;;;;5118014;27;20023;-75
2022/08/08 07:01:59;;;;;;;3.35;1.77;;;32.30;45.10;;;;;;5115105;28;20027;-75
2022/08/08 07:04:45;;;;;;;5.47;1.70;;;32.60;44.10;;;;;;5077264;28;20032;-75
2022/08/08 07:07:15;;;;;;;3.38;1.63;;;32.70;43.40;;;;;;5095075;28;20107;-75
2022/08/08 07:10:04;;;;;;;3.05;1.67;;;32.50;44.40;;;;;;5095189;28;20048;-75
2022/08/08 07:12:53;;;;;;;4.45;1.70;;;32.50;44.70;;;;;;5113599;27;20063;-76
2022/08/08 07:15:43;;;;;;;3.55;1.55;;;32.10;43.70;;;;;;5121645;27;20036;-76
2022/08/08 07:18:09;;;;;;;3.83;1.77;;;31.50;43.90;;;;;;5115398;27;20028;-75
2022/08/08 07:20:38;;;;;;;4.35;1.80;;;31.30;45.60;;;;;;5115129;28;20024;-74
2022/08/08 07:23:37;;;;;;;4.10;1.67;;;31.20;46.20;;;;;;5116190;27;20030;-76
2022/08/08 07:26:03;;;;;;;4.38;1.85;;;31.60;45.80;;;;;;5135812;27;20412;-76
2022/08/08 07:28:29;;;;;;;4.82;1.63;;;31.70;45.50;;;;;;5105254;28;20151;-76
2022/08/08 07:30:57;;;;;;;3.75;1.42;;;31.90;45.60;;;;;;5107012;28;20032;-75
2022/08/08 07:33:23;;;;;;;2.70;1.50;;;31.80;43.20;;;;;;5101541;28;20051;-75
2022/08/08 07:35:51;;;;;;;5.10;1.60;;;31.30;44.20;;;;;;5109757;28;20087;-75
2022/08/08 07:38:18;;;;;;;2.40;1.40;;;30.80;45.20;;;;;;5091989;28;20432;-76
2022/08/08 07:40:47;;;;;;;2.90;1.52;;;30.90;45.90;;;;;;5111226;28;20396;-76
2022/08/08 07:43:13;;;;;;;2.60;1.40;;;31.20;46.60;;;;;;5095477;28;20028;-75
2022/08/08 07:45:41;;;;;;;3.45;1.60;;;31.20;46.40;;;;;;5089381;28;20256;-76
2022/08/08 07:48:07;;;;;;;3.30;1.60;;;31.50;45.60;;;;;;5112646;28;20031;-76
2022/08/08 07:50:33;;;;;;;5.47;1.85;;;31.30;45.20;;;;;;5099302;28;20040;-75
2022/08/08 07:53:25;;;;;;;6.03;2.00;;;31.30;46.90;;;;;;5094727;28;20437;-75
2022/08/08 07:55:56;;;;;;;4.82;1.45;;;31.60;46.70;;;;;;5081405;28;20020;-77
2022/08/08 07:58:39;;;;;;;4.82;1.77;;;31.70;44.50;;;;;;5092114;28;20028;-75
2022/08/08 08:01:10;;;;;;;3.70;1.60;;;31.40;45.40;;;;;;5102077;28;20600;-76
2022/08/08 08:03:45;;;;;;;3.95;1.73;;;31.40;45.00;;;;;;5073822;28;20029;-75
2022/08/08 08:06:12;;;;;;;4.78;1.60;;;31.40;45.90;;;;;;5090000;28;20024;-76
2022/08/08 08:08:46;;;;;;;11.40;1.85;;;31.70;45.20;;;;;;5114641;28;20024;-75
2022/08/08 08:11:14;;;;;;;5.35;1.75;;;32.00;44.70;;;;;;5114100;28;20034;-75
2022/08/08 08:13:49;;;;;;;5.13;1.60;;;32.00;44.60;;;;;;5077787;28;20801;-79
2022/08/08 08:16:25;;;;;;;3.38;1.60;;;31.80;45.10;;;;;;5091601;28;20045;-77
2022/08/08 08:18:59;;;;;;;3.47;1.60;;;31.50;45.90;;;;;;5091247;28;20099;-76
2022/08/08 08:21:28;;;;;;;2.77;1.60;;;31.60;45.30;;;;;;4388903;28;10000732;-77
2022/08/08 08:23:54;;;;;;;3.10;1.67;;;32.00;44.80;;;;;;5089486;28;20032;-76
2022/08/08 08:26:20;;;;;;;3.97;1.80;;;31.80;44.40;;;;;;5070657;28;20032;-77
2022/08/08 08:28:46;;;;;;;5.47;1.70;;;31.90;45.30;;;;;;5075403;28;20029;-75
2022/08/08 08:31:16;;;;;;;2.78;1.70;;;32.40;46.10;;;;;;5088268;28;20081;-75
2022/08/08 08:33:42;;;;;;;5.90;1.70;;;32.90;46.40;;;;;;5086408;28;20093;-75
2022/08/08 08:36:09;;;;;;;4.03;1.60;;;33.30;44.50;;;;;;5087537;28;20032;-76
2022/08/08 08:38:35;;;;;;;8.43;1.90;;;33.60;43.20;;;;;;5084966;28;20024;-76
2022/08/08 08:41:03;;;;;;;3.88;1.50;;;33.80;44.30;;;;;;5088227;28;20038;-77
2022/08/08 08:43:30;;;;;;;3.10;1.58;;;34.00;44.10;;;;;;5094550;28;20019;-78
2022/08/08 08:45:57;;;;;;;5.55;1.67;;;33.90;43.80;;;;;;5083903;28;20023;-76
2022/08/08 08:48:23;;;;;;;4.05;1.63;;;33.40;43.40;;;;;;5064187;28;20483;-77
2022/08/08 08:50:51;;;;;;;5.18;1.73;;;32.90;44.10;;;;;;5085803;28;20044;-77
2022/08/08 08:53:18;;;;;;;3.33;1.52;;;32.90;44.80;;;;;;5108466;28;20483;-76
2022/08/08 08:55:44;;;;;;;3.67;1.85;;;33.20;45.10;;;;;;5101396;28;20020;-76
2022/08/08 08:58:31;;;;;;;5.13;1.77;;;33.20;44.60;;;;;;5109731;28;20756;-76
2022/08/08 09:00:59;;;;;;;5.28;1.90;;;33.10;44.60;;;;;;5110077;28;20031;-76
2022/08/08 09:03:26;;;;;;;3.15;1.42;;;33.30;45.10;;;;;;5107029;28;20485;-77
2022/08/08 09:05:53;;;;;;;6.55;1.60;;;33.60;44.00;;;;;;5109880;28;20080;-78
2022/08/08 09:08:23;;;;;;;2.92;1.60;;;33.40;44.00;;;;;;5109035;28;20023;-77
2022/08/08 09:10:49;;;;;;;4.72;1.50;;;33.10;44.10;;;;;;5110328;28;20020;-75
2022/08/08 09:13:17;;;;;;;3.80;1.58;;;32.70;43.80;;;;;;5109879;28;20042;-77
2022/08/08 09:15:44;;;;;;;4.13;1.80;;;32.60;44.20;;;;;;5109439;28;20493;-76
2022/08/08 09:18:13;;;;;;;4.22;1.80;;;32.90;44.60;;;;;;5109841;28;20397;-77
2022/08/08 09:20:39;;;;;;;4.07;1.67;;;33.40;42.90;;;;;;5086694;28;20030;-77
2022/08/08 09:23:06;;;;;;;3.47;1.60;;;33.90;43.30;;;;;;5122627;28;20485;-77
2022/08/08 09:25:36;;;;;;;3.22;1.55;;;34.30;43.40;;;;;;5096273;28;20036;-76
2022/08/08 09:28:02;;;;;;;4.47;1.85;;;34.10;42.70;;;;;;5103552;28;20438;-76
2022/08/08 09:30:32;;;;;;;3.92;1.70;;;34.00;43.60;;;;;;5103925;28;20020;-75
2022/08/08 09:32:58;;;;;;;3.83;1.88;;;34.30;43.10;;;;;;5090774;28;20093;-77
2022/08/08 09:35:29;;;;;;;3.45;1.60;;;34.60;42.80;;;;;;5091062;28;20433;-76
2022/08/08 09:38:00;;;;;;;3.05;1.70;;;34.80;42.70;;;;;;5102474;28;20032;-76
2022/08/08 09:40:29;;;;;;;4.55;1.70;;;34.90;42.50;;;;;;5093166;28;20069;-80
2022/08/08 09:43:11;;;;;;;3.90;2.00;;;35.10;42.90;;;;;;5092552;28;20056;-78
2022/08/08 09:45:47;;;;;;;5.20;1.73;;;34.90;43.10;;;;;;5094803;28;20027;-78
2022/08/08 09:48:16;;;;;;;3.58;1.63;;;34.60;43.60;;;;;;5112756;28;20028;-78
2022/08/08 09:50:44;;;;;;;5.03;1.80;;;34.70;43.90;;;;;;5112855;28;20058;-78
2022/08/08 09:53:16;;;;;;;2.90;1.75;;;35.00;43.10;;;;;;5113070;28;20031;-79
2022/08/08 09:55:43;;;;;;;3.05;1.70;;;35.30;42.90;;;;;;5113354;28;20019;-78
2022/08/08 09:58:30;;;;;;;5.03;1.75;;;35.00;42.50;;;;;;5113242;28;20028;-78
2022/08/08 10:01:00;;;;;;;3.60;1.77;;;34.70;43.40;;;;;;5113002;28;20031;-79
2022/08/08 10:03:29;;;;;;;5.22;1.85;;;34.90;43.80;;;;;;5116766;28;20019;-79
2022/08/08 10:05:55;;;;;;;6.65;1.80;;;35.00;43.60;;;;;;5117215;28;20356;-78
2022/08/08 10:08:21;;;;;;;4.20;1.60;;;35.00;44.30;;;;;;5117062;28;20030;-78
2022/08/08 10:10:47;;;;;;;3.45;1.90;;;35.10;43.40;;;;;;5117108;28;20028;-79
2022/08/08 10:13:22;;;;;;;5.40;1.80;;;35.30;43.30;;;;;;5117059;28;20031;-79
2022/08/08 10:15:54;;;;;;;2.80;1.60;;;35.50;42.90;;;;;;5117350;28;20024;-79
2022/08/08 10:18:28;;;;;;;3.10;1.80;;;35.40;42.90;;;;;;5116966;28;20387;-78
2022/08/08 10:21:05;;;;;;;4.15;1.70;;;34.90;42.50;;;;;;5116914;28;20016;-79
2022/08/08 10:23:33;;;;;;;4.05;1.60;;;34.50;43.00;;;;;;5116924;28;20105;-77
2022/08/08 10:26:01;;;;;;;4.45;2.10;;;34.00;43.80;;;;;;5117084;28;20438;-78
2022/08/08 10:28:30;;;;;;;5.45;1.90;;;33.70;43.70;;;;;;5098417;28;20117;-79
2022/08/08 10:32:30;;;;;;;3.88;1.90;;;33.70;44.40;;;;;;5116842;28;20400;-78
2022/08/08 10:33:49;;;;;;;3.42;1.90;;;34.00;43.70;;;;;;5116458;28;20080;-79
2022/08/08 10:36:17;;;;;;;4.97;1.83;;;34.20;43.60;;;;;;5116984;28;20019;-79
2022/08/08 10:38:43;;;;;;;5.28;1.92;;;34.30;43.20;;;;;;5098051;28;20023;-79
2022/08/08 10:41:16;;;;;;;7.28;6.57;;;34.30;43.80;;;;;;5116592;28;20035;-78
2022/08/08 10:43:42;;;;;;;3.42;2.80;;;34.30;43.90;;;;;;5116881;28;20513;-77
2022/08/08 10:46:24;;;;;;;4.15;3.47;;;34.10;44.40;;;;;;5116601;28;20374;-79
2022/08/08 10:48:54;;;;;;;4.00;3.25;;;34.00;44.80;;;;;;5097806;28;20028;-78
2022/08/08 10:51:25;;;;;;;4.70;1.67;;;34.10;45.20;;;;;;5098208;28;20035;-77
2022/08/08 10:53:54;;;;;;;5.18;1.80;;;34.40;45.60;;;;;;5116343;28;20032;-78
2022/08/08 10:56:20;;;;;;;3.83;1.90;;;34.50;46.20;;;;;;5116353;28;20057;-78
2022/08/08 10:58:46;;;;;;;3.65;1.83;;;34.10;45.10;;;;;;5116202;28;20439;-79
2022/08/08 11:01:13;;;;;;;6.35;2.45;;;34.00;46.10;;;;;;5098592;28;20080;-78
2022/08/08 11:03:44;;;;;;;11.57;6.50;;;33.80;46.20;;;;;;5116331;28;20054;-79
2022/08/08 11:06:11;;;;;;;15.15;12.57;;;33.50;47.60;;;;;;5116463;28;20103;-78
2022/08/08 11:08:38;;;;;;;4.65;3.35;;;33.10;49.10;;;;;;5098314;28;20111;-77
2022/08/08 11:11:09;;;;;;;6.47;3.97;;;32.80;50.30;;;;;;5116913;28;20386;-84
2022/08/08 11:13:39;;;;;;;7.70;4.00;;;32.70;50.70;;;;;;5114846;28;20441;-80
2022/08/08 11:16:15;;;;;;;5.07;3.78;;;32.40;51.40;;;;;;5116673;28;20110;-83
2022/08/08 11:18:43;;;;;;;6.32;3.83;;;32.20;51.70;;;;;;5115868;28;20031;-84
2022/08/08 11:21:10;;;;;;;7.55;3.90;;;31.60;52.70;;;;;;5098399;28;20038;-82
2022/08/08 11:23:40;;;;;;;7.32;4.10;;;30.80;53.60;;;;;;5097996;28;20478;-80
2022/08/08 11:26:09;;;;;;;8.73;5.20;;;30.70;54.30;;;;;;5115735;28;20036;-79
2022/08/08 11:28:36;;;;;;;11.50;4.72;;;31.00;54.40;;;;;;4384982;28;10000707;-78
2022/08/08 11:31:03;;;;;;;9.95;4.88;;;31.20;54.90;;;;;;5095998;28;20067;-81
2022/08/08 11:33:32;;;;;;;12.82;4.70;;;30.90;56.60;;;;;;5096193;28;20031;-91
2022/08/08 11:35:58;;;;;;;10.15;5.05;;;30.60;57.40;;;;;;5077567;28;20028;-81
2022/08/08 11:38:24;;;;;;;6.35;4.95;;;30.50;57.80;;;;;;5096160;28;20069;-79
2022/08/08 11:40:52;;;;;;;9.10;5.28;;;30.50;58.40;;;;;;5077089;28;20384;-80
2022/08/08 11:43:19;;;;;;;8.43;4.72;;;30.50;58.40;;;;;;5095936;28;20072;-80
2022/08/08 11:45:45;;;;;;;6.25;4.85;;;30.60;58.20;;;;;;5095946;28;20093;-82
2022/08/08 11:48:15;;;;;;;9.18;5.13;;;30.50;58.10;;;;;;5095430;28;20039;-84
2022/08/08 11:50:41;;;;;;;9.10;6.07;;;30.40;58.10;;;;;;5078098;28;20071;-85
2022/08/08 11:53:08;;;;;;;8.40;5.10;;;30.30;57.80;;;;;;5111440;28;20042;-82
2022/08/08 11:55:45;;;;;;;6.93;5.40;;;30.40;58.20;;;;;;5095146;28;20502;-82
2022/08/08 11:58:13;;;;;;;8.02;5.82;;;30.40;58.20;;;;;;5077130;28;20028;-84
2022/08/08 12:00:51;;;;;;;8.52;6.22;;;30.10;58.60;;;;;;5076916;28;20032;-78
2022/08/08 12:03:23;;;;;;;8.98;7.00;;;30.00;59.00;;;;;;5077776;28;20390;-81
2022/08/08 12:05:50;;;;;;;10.68;7.53;;;29.90;59.20;;;;;;5076271;28;20035;-80
2022/08/08 12:08:28;;;;;;;11.40;7.95;;;29.60;60.30;;;;;;5076317;28;20027;-82
2022/08/08 12:11:02;;;;;;;10.90;7.78;;;29.40;60.90;;;;;;5094688;28;20017;-76
2022/08/08 12:13:28;;;;;;;12.20;8.52;;;29.30;61.40;;;;;;5094299;28;20028;-84
2022/08/08 12:16:09;;;;;;;9.30;7.82;;;29.20;61.40;;;;;;5094781;28;20020;-81
2022/08/08 12:18:45;;;;;;;10.75;8.20;;;29.20;62.20;;;;;;5088272;28;20032;-84
2022/08/08 12:21:20;;;;;;;9.93;7.80;;;29.10;61.90;;;;;;5094689;28;20517;-82
2022/08/08 12:23:46;;;;;;;9.60;8.60;;;29.00;63.40;;;;;;5076908;28;20020;-82
2022/08/08 12:26:19;;;;;;;8.48;7.55;;;28.80;62.70;;;;;;5094179;28;20024;-80
2022/08/08 12:28:56;;;;;;;8.07;6.88;;;28.90;62.80;;;;;;5076598;28;20023;-80
2022/08/08 12:31:33;;;;;;;8.38;7.47;;;28.90;62.80;;;;;;5076196;28;20047;-88
2022/08/08 12:34:00;;;;;;;9.50;7.50;;;28.70;64.70;;;;;;5094104;28;20016;-77
2022/08/08 12:36:41;;;;;;;8.65;7.32;;;28.40;64.60;;;;;;5093909;28;20019;-85
2022/08/08 12:39:08;;;;;;;8.70;7.35;;;28.50;64.20;;;;;;5075804;28;20062;-80
2022/08/08 12:41:35;;;;;;;7.80;6.95;;;28.50;63.90;;;;;;5076367;28;20028;-82
2022/08/08 12:44:08;;;;;;;9.10;7.10;;;28.50;64.60;;;;;;5110094;28;20023;-78
2022/08/08 12:46:35;;;;;;;9.73;8.15;;;28.40;64.90;;;;;;5075443;28;20046;-79
2022/08/08 12:49:04;;;;;;;12.65;9.40;;;28.40;64.70;;;;;;5093679;28;20028;-79
2022/08/08 12:51:43;;;;;;;9.52;7.82;;;28.20;65.30;;;;;;5094035;28;20114;-82
2022/08/08 12:54:23;;;;;;;9.60;7.65;;;28.20;64.50;;;;;;5094303;28;20046;-83
2022/08/08 12:56:49;;;;;;;10.73;7.50;;;27.90;64.90;;;;;;5095079;28;20024;-87
2022/08/08 12:59:18;;;;;;;9.20;6.80;;;28.00;65.10;;;;;;5095019;28;20032;-82
2022/08/08 13:01:58;;;;;;;9.18;8.10;;;28.00;66.30;;;;;;5094660;28;20024;-86
2022/08/08 13:04:26;;;;;;;12.60;9.32;;;27.60;67.70;;;;;;5095167;28;20024;-83
2022/08/08 13:07:01;;;;;;;11.75;8.73;;;27.70;67.90;;;;;;5076362;28;20513;-85
2022/08/08 13:09:31;;;;;;;10.15;8.38;;;27.90;67.90;;;;;;5094722;28;20028;-78
2022/08/08 13:11:57;;;;;;;9.95;7.93;;;28.00;66.80;;;;;;5094050;28;20089;-80
2022/08/08 13:14:36;;;;;;;9.18;8.27;;;28.00;66.70;;;;;;5075873;28;20024;-80
2022/08/08 13:17:04;;;;;;;8.52;7.63;;;28.00;66.10;;;;;;5094604;28;20024;-85
2022/08/08 13:19:30;;;;;;;8.93;8.02;;;28.00;67.20;;;;;;5094177;28;20483;-78
2022/08/08 13:21:56;;;;;;;11.18;8.38;;;28.00;67.20;;;;;;5093866;28;20052;-84
2022/08/08 13:24:22;;;;;;;13.10;8.15;;;28.00;66.90;;;;;;5094113;28;20117;-76
2022/08/08 13:26:58;;;;;;;11.55;8.90;;;27.90;68.20;;;;;;5093563;28;20028;-78